Terminal Aerodrome Forecast
Issued by NWS Upton, NY

Home | Current Version | Previous Version | Text Only | Print | Product List | Glossary On
Versions: 1 2 3 4 5 6 7 8 9 10 11 12 13 14 15 16 17 18 19 20 21 22 23 24 25 26 27 28 29 30 31 32
000
FTUS41 KOKX 161900 CCA
TAFEWR
TAF COR
KEWR 161953Z 1620/1724 30008KT P6SM SCT035 BKN050
     FM170000 34007KT P6SM SCT060
     FM170500 36006KT P6SM FEW250
     FM171300 02006KT P6SM SKC
     FM171900 20008KT P6SM SCT050=

USA.gov is the U.S. government's official web portal to all federal, state and local government web resources and services.